RKJK

Kunsan Air Base Airport

Kunsan, South Korea
METAR RKJK 111056Z AUTO 12003KT 10SM OVC017 01/01 A3031 RMK AO2 SLPNO T00140014 PNO $
Observed Flight Rules
Dec-11 @ 10:56 UTC (21 minutes ago) Marginal Visual Flight Rules
Wind Visibility Clouds
120° at 3 knots 16,093 meters
  • Overcast at 1,700' AGL
Temperatures Readings
Current 1°C / 34°F
Dewpoint 1°C / 34°F
Humidity 100%
Altimeter 30.31" Hg
Pressure 1026 hPa
Elevation 9
METAR RKJK 111056Z AUTO 12003KT 10SM OVC017 01/01 A3031 RMK AO2 SLPNO T00140014 PNO $
Observed Flight Rules
Dec-11 @ 10:56 UTC
(21 minutes ago)
MVFR
Wind Visibility
120° at 3 knots 16,093 meters
Clouds
  • Overcast at 1,700' AGL
Temperature Dewpoint
1°C / 34°F 1°C / 34°F
Humidity Altimeter Pressure
100% 30.31" Hg 1026 hPa